createdAt,value
2022-11-13T00:01:24.384Z,102734.28
2022-11-13T00:06:28.091Z,102737.66
2022-11-13T00:11:30.236Z,102726.91
2022-11-13T00:16:32.520Z,102732.78
2022-11-13T00:21:36.134Z,102724.09
2022-11-13T00:26:38.799Z,102714.16
2022-11-13T00:31:41.342Z,102719.94
2022-11-13T00:36:44.953Z,102722.22
2022-11-13T00:41:47.374Z,102726.31
2022-11-13T00:46:49.465Z,102710.91
2022-11-13T00:51:53.118Z,102709.00
2022-11-13T00:56:55.023Z,102702.06
2022-11-13T01:01:57.213Z,102702.50
2022-11-13T01:07:00.686Z,102694.81
2022-11-13T01:12:02.740Z,102692.56
2022-11-13T01:17:04.870Z,102687.38
2022-11-13T01:22:08.283Z,102671.97
2022-11-13T01:27:10.434Z,102691.88
2022-11-13T01:32:12.899Z,102680.16
2022-11-13T01:37:16.533Z,102673.56
2022-11-13T01:42:18.318Z,102667.28
2022-11-13T01:47:21.999Z,102668.91
2022-11-13T01:52:27.809Z,102665.94
2022-11-13T01:57:30.045Z,102668.66
2022-11-13T02:02:32.302Z,102661.44
2022-11-13T02:07:36.120Z,102658.47
2022-11-13T02:12:42.745Z,102656.28
2022-11-13T02:17:48.102Z,102652.06
2022-11-13T02:22:59.826Z,102649.00
2022-11-13T02:28:03.421Z,102643.91
2022-11-13T02:33:22.264Z,102634.34
2022-11-13T02:38:24.695Z,102625.59
2022-11-13T02:43:28.538Z,102618.50
2022-11-13T02:48:30.999Z,102627.47
2022-11-13T02:53:33.356Z,102610.75
2022-11-13T02:58:36.672Z,102609.00
2022-11-13T03:03:56.930Z,102586.97
2022-11-13T03:08:59.866Z,102593.91
2022-11-13T03:14:03.956Z,102590.50
2022-11-13T03:19:06.347Z,102591.44
2022-11-13T03:24:08.475Z,102591.53
2022-11-13T03:29:11.969Z,102580.88
2022-11-13T03:34:14.395Z,102581.06
2022-11-13T03:39:16.590Z,102580.91
2022-11-13T03:44:20.176Z,102577.56
2022-11-13T03:49:22.339Z,102587.13
2022-11-13T03:54:24.504Z,102581.91
2022-11-13T03:59:27.507Z,102575.50
2022-11-13T04:04:29.733Z,102594.84
2022-11-13T04:09:31.769Z,102592.06
2022-11-13T04:14:35.220Z,102591.13
2022-11-13T04:19:37.233Z,102585.19
2022-11-13T04:24:39.348Z,102591.97
2022-11-13T04:29:42.950Z,102579.47
2022-11-13T04:34:45.265Z,102577.63
2022-11-13T04:39:47.320Z,102578.41
2022-11-13T04:44:50.733Z,102571.38
2022-11-13T04:49:52.824Z,102566.97
2022-11-13T04:54:54.803Z,102566.63
2022-11-13T04:59:58.467Z,102561.56
2022-11-13T05:05:04.930Z,102554.78
2022-11-13T05:10:07.421Z,102561.06
2022-11-13T05:15:11.015Z,102562.88
2022-11-13T05:20:12.709Z,102557.84
2022-11-13T05:25:14.817Z,102561.63
2022-11-13T05:30:18.675Z,102558.25
2022-11-13T05:35:20.982Z,102543.34
2022-11-13T05:40:23.077Z,102548.97
2022-11-13T05:45:26.528Z,102544.38
2022-11-13T05:50:28.807Z,102539.03
2022-11-13T05:55:30.923Z,102537.19
2022-11-13T06:00:34.066Z,102541.03
2022-11-13T06:05:36.218Z,102534.03
2022-11-13T06:10:37.944Z,102530.97
2022-11-13T06:15:41.452Z,102524.09
2022-11-13T06:20:43.251Z,102526.59
2022-11-13T06:25:44.979Z,102522.22
2022-11-13T06:30:47.979Z,102516.75
2022-11-13T06:35:50.204Z,102510.56
2022-11-13T06:40:52.111Z,102502.56
2022-11-13T06:45:56.152Z,102509.66
2022-11-13T06:51:01.836Z,102506.22
2022-11-13T06:56:05.995Z,102502.03
2022-11-13T07:01:11.699Z,102505.59
2022-11-13T07:06:16.031Z,102497.72
2022-11-13T07:11:21.038Z,102502.25
2022-11-13T07:16:24.642Z,102485.50
2022-11-13T07:21:26.808Z,102475.22
2022-11-13T07:26:29.259Z,102478.84
2022-11-13T07:31:32.791Z,102484.22
2022-11-13T07:36:35.212Z,102480.56
2022-11-13T07:41:37.304Z,102489.50
2022-11-13T07:46:40.832Z,102496.66
2022-11-13T07:51:42.520Z,102495.03
2022-11-13T07:56:44.659Z,102489.88
2022-11-13T08:01:48.434Z,102483.72
2022-11-13T08:06:50.778Z,102483.22
2022-11-13T08:11:52.755Z,102486.03
2022-11-13T08:16:56.230Z,102481.50
2022-11-13T08:21:58.434Z,102468.28
2022-11-13T08:27:00.469Z,102471.06
2022-11-13T08:32:04.283Z,102480.94
2022-11-13T08:37:06.710Z,102470.44
2022-11-13T08:42:08.817Z,102475.84
2022-11-13T08:47:12.293Z,102473.31
2022-11-13T08:52:15.359Z,102471.72
2022-11-13T08:57:17.050Z,102476.31
2022-11-13T09:02:20.193Z,102472.84
2022-11-13T09:07:27.010Z,102472.00
2022-11-13T09:12:29.318Z,102468.53
2022-11-13T09:17:33.239Z,102461.31
2022-11-13T09:22:35.199Z,102459.56
2022-11-13T09:27:36.939Z,102461.31
2022-11-13T09:32:40.326Z,102456.16
2022-11-13T09:37:42.711Z,102454.31
2022-11-13T09:42:46.538Z,102461.72
2022-11-13T09:47:51.923Z,102459.78
2022-11-13T09:52:55.027Z,102451.84
2022-11-13T09:58:06.505Z,102454.69
2022-11-13T10:03:54.115Z,102445.03
2022-11-13T10:08:53.782Z,102440.13
2022-11-13T10:14:19.392Z,102420.97
2022-11-13T10:19:30.616Z,102419.19
2022-11-13T10:24:39.926Z,102421.16
2022-11-13T10:29:47.770Z,102425.38
2022-11-13T10:35:02.015Z,102414.16
2022-11-13T10:40:05.276Z,102413.31
2022-11-13T10:45:15.937Z,102402.50
2022-11-13T10:50:25.270Z,102403.56
2022-11-13T10:55:38.295Z,102385.94
2022-11-13T11:00:40.457Z,102390.63
2022-11-13T11:05:56.464Z,102378.97
2022-11-13T11:11:01.211Z,102363.56
2022-11-13T11:16:05.659Z,102370.81
2022-11-13T11:21:14.138Z,102362.91
2022-11-13T11:26:22.387Z,102365.56
2022-11-13T11:31:30.104Z,102357.69
2022-11-13T11:36:38.252Z,102350.53
2022-11-13T11:41:45.874Z,102352.41
2022-11-13T11:46:48.479Z,102352.53
2022-11-13T11:52:01.124Z,102337.78
2022-11-13T11:57:14.867Z,102329.38
2022-11-13T12:02:46.206Z,102323.13
2022-11-13T12:08:00.131Z,102318.09
2022-11-13T12:13:16.229Z,102311.88
2022-11-13T12:18:27.869Z,102298.63
2022-11-13T12:23:47.197Z,102296.06
2022-11-13T12:28:57.511Z,102290.84
2022-11-13T12:34:06.730Z,102276.69
2022-11-13T12:39:28.979Z,102278.41
2022-11-13T12:44:38.796Z,102276.47
2022-11-13T12:49:40.972Z,102270.38
2022-11-13T12:54:45.248Z,102258.91
2022-11-13T12:59:50.702Z,102253.50
2022-11-13T13:05:08.409Z,102235.78
2022-11-13T13:10:20.392Z,102249.13
2022-11-13T13:15:32.979Z,102239.34
2022-11-13T13:20:37.246Z,102229.50
2022-11-13T13:25:41.444Z,102231.28
2022-11-13T13:30:51.619Z,102229.47
2022-11-13T13:36:03.372Z,102221.56
2022-11-13T13:41:16.987Z,102215.34
2022-11-13T13:46:20.332Z,102223.28
2022-11-13T13:51:28.484Z,102208.19
2022-11-13T13:56:32.968Z,102216.88
2022-11-13T14:01:35.868Z,102214.16
2022-11-13T14:06:48.275Z,102206.94
2022-11-13T14:12:00.323Z,102200.63
2022-11-13T14:17:03.004Z,102207.63
2022-11-13T14:22:08.650Z,102211.03
2022-11-13T14:27:18.748Z,102202.03
2022-11-13T14:32:24.082Z,102208.13
2022-11-13T14:37:31.327Z,102202.69
2022-11-13T14:42:38.517Z,102196.22
2022-11-13T14:47:40.957Z,102191.56
2022-11-13T14:52:43.948Z,102195.72
2022-11-13T14:57:50.326Z,102192.84
2022-11-13T15:02:52.780Z,102187.28
2022-11-13T15:07:55.824Z,102184.31
2022-11-13T15:12:58.991Z,102181.34
2022-11-13T15:18:02.031Z,102181.00
2022-11-13T15:23:03.874Z,102167.41
2022-11-13T15:28:07.292Z,102181.19
2022-11-13T15:33:16.660Z,102179.97
2022-11-13T15:38:18.385Z,102171.50
2022-11-13T15:43:21.862Z,102173.97
2022-11-13T15:48:24.055Z,102166.19
2022-11-13T15:53:26.481Z,102148.56
2022-11-13T15:58:33.468Z,102156.19
2022-11-13T16:03:36.030Z,102152.47
2022-11-13T16:08:38.398Z,102153.50
2022-11-13T16:13:41.626Z,102154.94
2022-11-13T16:18:43.375Z,102147.13
2022-11-13T16:23:45.333Z,102155.50
2022-11-13T16:29:12.753Z,102150.31
2022-11-13T16:34:12.851Z,102159.75
2022-11-13T16:39:16.883Z,102159.84
2022-11-13T16:44:20.402Z,102163.91
2022-11-13T16:49:22.954Z,102156.81
2022-11-13T16:54:24.695Z,102153.22
2022-11-13T16:59:28.331Z,102156.13
2022-11-13T17:04:30.021Z,102151.28
2022-11-13T17:09:31.743Z,102138.22
2022-11-13T17:14:35.571Z,102142.56
2022-11-13T17:19:37.762Z,102138.19
2022-11-13T17:24:40.562Z,102141.69
2022-11-13T17:29:44.052Z,102138.09
2022-11-13T17:34:45.857Z,102130.88
2022-11-13T17:39:47.675Z,102135.97
2022-11-13T17:44:51.462Z,102130.25
2022-11-13T17:49:53.494Z,102138.78
2022-11-13T17:54:55.146Z,102136.22
2022-11-13T17:59:58.230Z,102139.38
2022-11-13T18:04:59.963Z,102131.25
2022-11-13T18:10:01.773Z,102135.41
2022-11-13T18:15:06.114Z,102136.19
2022-11-13T18:20:08.827Z,102130.03
2022-11-13T18:25:10.879Z,102124.69
2022-11-13T18:30:14.061Z,102118.34
2022-11-13T18:35:16.052Z,102130.34
2022-11-13T18:40:17.854Z,102124.81
2022-11-13T18:45:20.939Z,102131.59
2022-11-13T18:50:23.244Z,102132.63
2022-11-13T18:55:24.961Z,102130.34
2022-11-13T19:00:28.444Z,102147.34
2022-11-13T19:05:30.186Z,102147.56
2022-11-13T19:10:33.720Z,102138.03
2022-11-13T19:15:37.469Z,102140.72
2022-11-13T19:20:39.426Z,102130.38
2022-11-13T19:25:41.630Z,102131.22
2022-11-13T19:30:45.770Z,102121.50
2022-11-13T19:35:48.197Z,102120.59
2022-11-13T19:40:51.658Z,102115.25
2022-11-13T19:45:55.081Z,102127.59
2022-11-13T19:51:02.582Z,102124.84
2022-11-13T19:56:05.472Z,102111.50
2022-11-13T20:01:14.852Z,102107.38
2022-11-13T20:06:17.443Z,102101.66
2022-11-13T20:11:19.546Z,102100.66
2022-11-13T20:16:23.742Z,102091.53
2022-11-13T20:21:27.061Z,102095.34
2022-11-13T20:26:29.440Z,102091.97
2022-11-13T20:31:32.818Z,102087.97
2022-11-13T20:36:35.372Z,102082.69
2022-11-13T20:41:37.439Z,102074.88
2022-11-13T20:46:40.505Z,102080.09
2022-11-13T20:51:42.503Z,102076.28
2022-11-13T20:56:44.265Z,102073.44
2022-11-13T21:01:47.488Z,102073.25
2022-11-13T21:06:49.934Z,102064.19
2022-11-13T21:11:51.677Z,102053.66
2022-11-13T21:16:54.920Z,102054.56
2022-11-13T21:21:56.633Z,102057.97
2022-11-13T21:26:59.168Z,102049.81
2022-11-13T21:32:02.254Z,102058.69
2022-11-13T21:37:04.622Z,102058.59
2022-11-13T21:42:06.722Z,102044.75
2022-11-13T21:47:10.754Z,102050.91
2022-11-13T21:52:12.821Z,102047.41
2022-11-13T21:57:14.626Z,102040.38
2022-11-13T22:02:17.792Z,102044.66
2022-11-13T22:07:19.630Z,102035.72
2022-11-13T22:12:21.427Z,102031.38
2022-11-13T22:17:24.916Z,102030.88
2022-11-13T22:22:26.570Z,102012.22
2022-11-13T22:27:29.296Z,102013.94
2022-11-13T22:32:33.060Z,102012.94
2022-11-13T22:37:35.153Z,102013.03
2022-11-13T22:42:37.445Z,102001.41
2022-11-13T22:47:40.553Z,101994.19
2022-11-13T22:52:42.831Z,101987.81
2022-11-13T22:57:44.528Z,101981.59
2022-11-13T23:02:47.994Z,101979.81
2022-11-13T23:07:49.710Z,101978.00
2022-11-13T23:12:52.225Z,101980.31
2022-11-13T23:17:55.859Z,101965.56
2022-11-13T23:22:57.934Z,101968.91
2022-11-13T23:28:00.134Z,101973.34
2022-11-13T23:33:04.137Z,101952.28
2022-11-13T23:38:06.242Z,101958.38
2022-11-13T23:43:08.404Z,101950.31
2022-11-13T23:48:11.803Z,101947.38
2022-11-13T23:53:14.676Z,101944.00
2022-11-13T23:58:17.129Z,101941.06
